Gann Valley, SD (57341)

8:41 PM CST on January 20, 2018 (GMT -0600)
ME0083 | | Change Station
Active Advisory: Winter Storm Watch

Elev 1600 ft 44.08 °N, 99.15 °W | Updated 6 minutes ago

Overcast
Overcast
36.0 °F
Feels Like 36 °F
N
0.0
Wind Variable Wind from NW
Gusts 5.0 mph

Today
High -- | Low -- °F
--% Chance of Precip.
Yesterday
High -- | Low -- °F
Precip. -- in
Pressure 29.95 in
Visibility 10.0 miles
Clouds Overcast 6000 ft
Windchill 36 °F
Dew Point 35 °F
Humidity 98%
Rainfall 0.00 in
Snow Depth Not available.
8:04 AM 5:30 PM
Waxing Crescent, 14% visible
METAR K9V9 210235Z AUTO 33005KT 10SM OVC060 04/03 A2995 RMK AO2 T00380027
Pressure 29.95 in
Visibility 10.0 miles
Clouds Overcast 6000 ft
Windchill 36 °F
Dew Point 35 °F
Humidity 98%
Rainfall 0.00 in
Snow Depth Not available.
8:04 AM 5:30 PM
Waxing Crescent, 14% visible
METAR K9V9 210235Z AUTO 33005KT 10SM OVC060 04/03 A2995 RMK AO2 T00380027

Get Your Daily Forecast Email!

Thanks for signing up!

Be on the lookout for a verification email in your inbox.

You'll start receiving severe weather alerts in your inbox..

×

10-Day Weather Forecast

Almanac

Astronomy

Jan. 20, 2018 Rise Set
Actual Time
Civil Twilight
Nautical Twilight
Astronomical Twilight
Moon
Length of Visible Light
Length of Day
Tomorrow will be .
, % of the Moon is Illuminated

Today's Extremes

State Highs State Lows

Community

WunderPhotos

Category 6

Welcome to Category 6. This is the collective home for Weather Underground's featured writeups by Dr. Jeff Masters (right), Bob Henson (left), Chris Burt, and other regular contributors.

Nearby

Air Quality

  Air Quality AQ Index Pollutant
Not available.

Snow Depth

Station Depth Elevation

Earthquake Activity

City Distance Mag. Time & Date
Minimum magnitude displayed is 2.5.

Coastal Water Temperatures

Place Temperature

Stations

Nearby Weather Stations

Station Location Temp. Windchill Dew Point Humidity Wind Precip. Elev Updated Type
                   

Watches & Warnings

Winter Storm Watch
Issued: 8:39 PM CST Jan. 20, 2018 – National Weather Service

... Winter Storm Watch remains in effect from 6 am CST Sunday
through late Sunday night...

* what... heavy snow possible. Plan on difficult travel
conditions. Total snow accumulations of 2 to 4 inches are
possible.

* Where... Buffalo County.

* When... from 6 am CST Sunday through late Sunday night.

* Additional details... significant reductions in visibility are
possible.

Precautionary/preparedness actions...

A Winter Storm Watch means there is potential for significant
snow, sleet or ice accumulations that may impact travel. Continue
to monitor the latest forecasts.